sensor_id;sensor_type;location;lat;lon;timestamp;temperature;humidity
21635;DHT22;10979;48.306;9.830;2023-03-20T00:01:44;6.30;99.90
21635;DHT22;10979;48.306;9.830;2023-03-20T00:04:10;6.20;99.90
21635;DHT22;10979;48.306;9.830;2023-03-20T00:06:37;6.20;99.90
21635;DHT22;10979;48.306;9.830;2023-03-20T00:09:02;6.10;99.90
21635;DHT22;10979;48.306;9.830;2023-03-20T00:11:33;6.10;99.90
21635;DHT22;10979;48.306;9.830;2023-03-20T00:14:06;6.00;99.90
21635;DHT22;10979;48.306;9.830;2023-03-20T00:16:37;5.90;99.90
21635;DHT22;10979;48.306;9.830;2023-03-20T00:19:04;5.80;99.90
21635;DHT22;10979;48.306;9.830;2023-03-20T00:21:30;5.70;99.90
21635;DHT22;10979;48.306;9.830;2023-03-20T00:23:57;5.70;99.90
21635;DHT22;10979;48.306;9.830;2023-03-20T00:26:26;5.80;99.90
21635;DHT22;10979;48.306;9.830;2023-03-20T00:28:53;5.70;99.90
21635;DHT22;10979;48.306;9.830;2023-03-20T00:31:25;5.70;99.90
21635;DHT22;10979;48.306;9.830;2023-03-20T00:33:53;5.70;99.90
21635;DHT22;10979;48.306;9.830;2023-03-20T00:36:20;5.70;99.90
21635;DHT22;10979;48.306;9.830;2023-03-20T00:38:46;5.70;99.90
21635;DHT22;10979;48.306;9.830;2023-03-20T00:41:35;5.60;99.90
21635;DHT22;10979;48.306;9.830;2023-03-20T00:44:38;5.60;99.90
21635;DHT22;10979;48.306;9.830;2023-03-20T00:47:17;5.60;99.90
21635;DHT22;10979;48.306;9.830;2023-03-20T00:49:43;5.50;99.90
21635;DHT22;10979;48.306;9.830;2023-03-20T00:52:10;5.50;99.90
21635;DHT22;10979;48.306;9.830;2023-03-20T00:54:37;5.50;99.90
21635;DHT22;10979;48.306;9.830;2023-03-20T00:57:07;5.60;99.90
21635;DHT22;10979;48.306;9.830;2023-03-20T00:59:40;5.50;99.90
21635;DHT22;10979;48.306;9.830;2023-03-20T01:02:06;5.60;99.90
21635;DHT22;10979;48.306;9.830;2023-03-20T01:04:38;5.40;99.90
21635;DHT22;10979;48.306;9.830;2023-03-20T01:07:05;5.40;99.90
21635;DHT22;10979;48.306;9.830;2023-03-20T01:09:31;5.30;99.90
21635;DHT22;10979;48.306;9.830;2023-03-20T01:12:01;5.20;99.90
21635;DHT22;10979;48.306;9.830;2023-03-20T01:14:26;5.20;99.90
21635;DHT22;10979;48.306;9.830;2023-03-20T01:16:52;5.20;99.90
21635;DHT22;10979;48.306;9.830;2023-03-20T01:19:18;5.20;99.90
21635;DHT22;10979;48.306;9.830;2023-03-20T01:21:43;5.30;99.90
21635;DHT22;10979;48.306;9.830;2023-03-20T01:24:09;5.30;99.90
21635;DHT22;10979;48.306;9.830;2023-03-20T01:26:37;5.40;99.90
21635;DHT22;10979;48.306;9.830;2023-03-20T01:29:22;5.40;99.90
21635;DHT22;10979;48.306;9.830;2023-03-20T01:31:48;5.40;99.90
21635;DHT22;10979;48.306;9.830;2023-03-20T01:34:14;5.40;99.90
21635;DHT22;10979;48.306;9.830;2023-03-20T01:37:00;5.50;99.90
21635;DHT22;10979;48.306;9.830;2023-03-20T01:39:34;5.60;99.90
21635;DHT22;10979;48.306;9.830;2023-03-20T01:42:01;5.60;99.90
21635;DHT22;10979;48.306;9.830;2023-03-20T01:44:29;5.50;99.90
21635;DHT22;10979;48.306;9.830;2023-03-20T01:46:55;5.40;99.90
21635;DHT22;10979;48.306;9.830;2023-03-20T01:51:47;5.20;99.90
21635;DHT22;10979;48.306;9.830;2023-03-20T01:54:17;5.20;99.90
21635;DHT22;10979;48.306;9.830;2023-03-20T01:56:50;5.20;99.90
21635;DHT22;10979;48.306;9.830;2023-03-20T01:59:19;5.20;99.90
21635;DHT22;10979;48.306;9.830;2023-03-20T02:01:46;5.20;99.90
21635;DHT22;10979;48.306;9.830;2023-03-20T02:04:13;5.30;99.90
21635;DHT22;10979;48.306;9.830;2023-03-20T02:06:40;5.30;99.90
21635;DHT22;10979;48.306;9.830;2023-03-20T02:09:06;5.30;99.90
21635;DHT22;10979;48.306;9.830;2023-03-20T02:11:33;5.40;99.90
21635;DHT22;10979;48.306;9.830;2023-03-20T02:14:00;5.40;99.90
21635;DHT22;10979;48.306;9.830;2023-03-20T02:16:26;5.30;99.90
21635;DHT22;10979;48.306;9.830;2023-03-20T02:18:54;5.20;99.90
21635;DHT22;10979;48.306;9.830;2023-03-20T02:24:53;5.20;99.90
21635;DHT22;10979;48.306;9.830;2023-03-20T02:44:49;5.00;99.90
21635;DHT22;10979;48.306;9.830;2023-03-20T02:47:30;5.00;99.90
21635;DHT22;10979;48.306;9.830;2023-03-20T02:50:12;4.80;99.90
21635;DHT22;10979;48.306;9.830;2023-03-20T02:53:06;4.80;99.90
21635;DHT22;10979;48.306;9.830;2023-03-20T02:58:51;4.90;99.90
21635;DHT22;10979;48.306;9.830;2023-03-20T03:01:50;4.70;99.90
21635;DHT22;10979;48.306;9.830;2023-03-20T03:04:23;4.60;99.90
21635;DHT22;10979;48.306;9.830;2023-03-20T03:06:51;4.70;99.90
21635;DHT22;10979;48.306;9.830;2023-03-20T03:09:29;4.80;99.90
21635;DHT22;10979;48.306;9.830;2023-03-20T03:12:11;4.70;99.90
21635;DHT22;10979;48.306;9.830;2023-03-20T03:14:53;4.70;99.90
21635;DHT22;10979;48.306;9.830;2023-03-20T03:17:23;4.70;99.90
21635;DHT22;10979;48.306;9.830;2023-03-20T03:19:52;4.70;99.90
21635;DHT22;10979;48.306;9.830;2023-03-20T03:22:19;4.80;99.90
21635;DHT22;10979;48.306;9.830;2023-03-20T03:24:48;5.00;99.90
21635;DHT22;10979;48.306;9.830;2023-03-20T03:27:23;5.10;99.90
21635;DHT22;10979;48.306;9.830;2023-03-20T03:29:58;5.20;99.90
21635;DHT22;10979;48.306;9.830;2023-03-20T03:32:34;5.20;99.90
21635;DHT22;10979;48.306;9.830;2023-03-20T03:35:02;5.30;99.90
21635;DHT22;10979;48.306;9.830;2023-03-20T03:41:18;5.40;99.90
21635;DHT22;10979;48.306;9.830;2023-03-20T03:46:23;5.40;99.90
21635;DHT22;10979;48.306;9.830;2023-03-20T03:48:54;5.40;99.90
21635;DHT22;10979;48.306;9.830;2023-03-20T03:51:27;5.40;99.90
21635;DHT22;10979;48.306;9.830;2023-03-20T03:54:00;5.40;99.90
21635;DHT22;10979;48.306;9.830;2023-03-20T03:56:29;5.40;99.90
21635;DHT22;10979;48.306;9.830;2023-03-20T03:58:59;5.40;99.90
21635;DHT22;10979;48.306;9.830;2023-03-20T04:01:27;5.40;99.90
21635;DHT22;10979;48.306;9.830;2023-03-20T04:03:59;5.40;99.90
21635;DHT22;10979;48.306;9.830;2023-03-20T04:06:26;5.50;99.90
21635;DHT22;10979;48.306;9.830;2023-03-20T04:08:52;5.50;99.90
21635;DHT22;10979;48.306;9.830;2023-03-20T04:11:20;5.60;99.90
21635;DHT22;10979;48.306;9.830;2023-03-20T04:13:47;5.60;99.90
21635;DHT22;10979;48.306;9.830;2023-03-20T04:16:14;5.60;99.90
21635;DHT22;10979;48.306;9.830;2023-03-20T04:18:41;5.60;99.90
21635;DHT22;10979;48.306;9.830;2023-03-20T04:21:07;5.50;99.90
21635;DHT22;10979;48.306;9.830;2023-03-20T04:23:33;5.40;99.90
21635;DHT22;10979;48.306;9.830;2023-03-20T04:25:59;5.40;99.90
21635;DHT22;10979;48.306;9.830;2023-03-20T04:28:24;5.50;99.90
21635;DHT22;10979;48.306;9.830;2023-03-20T04:30:54;5.50;99.90
21635;DHT22;10979;48.306;9.830;2023-03-20T04:33:21;5.50;99.90
21635;DHT22;10979;48.306;9.830;2023-03-20T04:35:47;5.50;99.90
21635;DHT22;10979;48.306;9.830;2023-03-20T04:38:12;5.60;99.90
21635;DHT22;10979;48.306;9.830;2023-03-20T04:40:38;5.60;99.90
21635;DHT22;10979;48.306;9.830;2023-03-20T04:43:04;5.60;99.90
21635;DHT22;10979;48.306;9.830;2023-03-20T04:45:29;5.60;99.90
21635;DHT22;10979;48.306;9.830;2023-03-20T04:47:55;5.60;99.90
21635;DHT22;10979;48.306;9.830;2023-03-20T04:50:21;5.70;99.90
21635;DHT22;10979;48.306;9.830;2023-03-20T04:52:46;5.70;99.90
21635;DHT22;10979;48.306;9.830;2023-03-20T04:55:12;5.60;99.90
21635;DHT22;10979;48.306;9.830;2023-03-20T04:57:37;5.70;99.90
21635;DHT22;10979;48.306;9.830;2023-03-20T05:00:04;5.70;99.90
21635;DHT22;10979;48.306;9.830;2023-03-20T05:02:31;5.70;99.90
21635;DHT22;10979;48.306;9.830;2023-03-20T05:04:56;5.80;99.90
21635;DHT22;10979;48.306;9.830;2023-03-20T05:07:22;5.90;99.90
21635;DHT22;10979;48.306;9.830;2023-03-20T05:09:47;5.80;99.90
21635;DHT22;10979;48.306;9.830;2023-03-20T05:12:13;5.80;99.90
21635;DHT22;10979;48.306;9.830;2023-03-20T05:14:38;5.90;99.90
21635;DHT22;10979;48.306;9.830;2023-03-20T05:17:04;5.90;99.90
21635;DHT22;10979;48.306;9.830;2023-03-20T05:19:30;5.90;99.90
21635;DHT22;10979;48.306;9.830;2023-03-20T05:21:55;5.90;99.90
21635;DHT22;10979;48.306;9.830;2023-03-20T05:24:21;5.90;99.90
21635;DHT22;10979;48.306;9.830;2023-03-20T05:26:46;5.90;99.90
21635;DHT22;10979;48.306;9.830;2023-03-20T05:29:12;5.90;99.90
21635;DHT22;10979;48.306;9.830;2023-03-20T05:31:38;5.90;99.90
21635;DHT22;10979;48.306;9.830;2023-03-20T05:34:03;6.00;99.90
21635;DHT22;10979;48.306;9.830;2023-03-20T05:36:30;6.00;99.90
21635;DHT22;10979;48.306;9.830;2023-03-20T05:38:56;6.00;99.90
21635;DHT22;10979;48.306;9.830;2023-03-20T05:41:22;6.00;99.90
21635;DHT22;10979;48.306;9.830;2023-03-20T05:43:47;5.90;99.90
21635;DHT22;10979;48.306;9.830;2023-03-20T05:46:13;6.00;99.90
21635;DHT22;10979;48.306;9.830;2023-03-20T05:48:38;6.00;99.90
21635;DHT22;10979;48.306;9.830;2023-03-20T05:51:04;6.00;99.90
21635;DHT22;10979;48.306;9.830;2023-03-20T05:53:30;6.10;99.90
21635;DHT22;10979;48.306;9.830;2023-03-20T05:55:56;6.10;99.90
21635;DHT22;10979;48.306;9.830;2023-03-20T05:58:21;6.10;99.90
21635;DHT22;10979;48.306;9.830;2023-03-20T06:00:47;6.20;99.90
21635;DHT22;10979;48.306;9.830;2023-03-20T06:03:12;6.20;99.90
21635;DHT22;10979;48.306;9.830;2023-03-20T06:05:38;6.20;99.90
21635;DHT22;10979;48.306;9.830;2023-03-20T06:08:04;6.30;99.90
21635;DHT22;10979;48.306;9.830;2023-03-20T06:10:30;6.30;99.90
21635;DHT22;10979;48.306;9.830;2023-03-20T06:12:56;6.40;99.90
21635;DHT22;10979;48.306;9.830;2023-03-20T06:15:22;6.40;99.90
21635;DHT22;10979;48.306;9.830;2023-03-20T06:17:48;6.50;99.90
21635;DHT22;10979;48.306;9.830;2023-03-20T06:20:13;6.50;99.90
21635;DHT22;10979;48.306;9.830;2023-03-20T06:22:39;6.60;99.90
21635;DHT22;10979;48.306;9.830;2023-03-20T06:25:06;6.60;99.90
21635;DHT22;10979;48.306;9.830;2023-03-20T06:27:31;6.70;99.90
21635;DHT22;10979;48.306;9.830;2023-03-20T06:29:57;6.70;99.90
21635;DHT22;10979;48.306;9.830;2023-03-20T06:32:22;6.80;99.90
21635;DHT22;10979;48.306;9.830;2023-03-20T06:34:48;6.90;99.90
21635;DHT22;10979;48.306;9.830;2023-03-20T06:37:14;6.90;99.90
21635;DHT22;10979;48.306;9.830;2023-03-20T06:39:39;7.00;99.90
21635;DHT22;10979;48.306;9.830;2023-03-20T06:42:06;7.10;99.90
21635;DHT22;10979;48.306;9.830;2023-03-20T06:44:31;7.10;99.90
21635;DHT22;10979;48.306;9.830;2023-03-20T06:46:57;7.20;99.90
21635;DHT22;10979;48.306;9.830;2023-03-20T06:49:22;7.20;99.90
21635;DHT22;10979;48.306;9.830;2023-03-20T06:51:48;7.30;99.90
21635;DHT22;10979;48.306;9.830;2023-03-20T06:54:13;7.40;99.90
21635;DHT22;10979;48.306;9.830;2023-03-20T06:56:39;7.60;99.90
21635;DHT22;10979;48.306;9.830;2023-03-20T06:59:05;7.60;99.90
21635;DHT22;10979;48.306;9.830;2023-03-20T07:01:30;7.70;99.90
21635;DHT22;10979;48.306;9.830;2023-03-20T07:03:56;7.70;99.90
21635;DHT22;10979;48.306;9.830;2023-03-20T07:06:21;7.90;99.90
21635;DHT22;10979;48.306;9.830;2023-03-20T07:08:47;7.90;99.90
21635;DHT22;10979;48.306;9.830;2023-03-20T07:11:13;8.10;99.90
21635;DHT22;10979;48.306;9.830;2023-03-20T07:13:39;8.30;99.90
21635;DHT22;10979;48.306;9.830;2023-03-20T07:16:06;8.50;99.90
21635;DHT22;10979;48.306;9.830;2023-03-20T07:18:32;8.40;99.90
21635;DHT22;10979;48.306;9.830;2023-03-20T07:21:03;8.40;99.90
21635;DHT22;10979;48.306;9.830;2023-03-20T07:23:29;8.60;99.90
21635;DHT22;10979;48.306;9.830;2023-03-20T07:25:56;8.60;99.90
21635;DHT22;10979;48.306;9.830;2023-03-20T07:28:22;8.70;99.90
21635;DHT22;10979;48.306;9.830;2023-03-20T07:30:48;8.80;99.90
21635;DHT22;10979;48.306;9.830;2023-03-20T07:33:14;8.90;99.90
21635;DHT22;10979;48.306;9.830;2023-03-20T07:35:39;9.10;99.90
21635;DHT22;10979;48.306;9.830;2023-03-20T07:38:05;9.10;99.90
21635;DHT22;10979;48.306;9.830;2023-03-20T07:40:31;9.00;99.90
21635;DHT22;10979;48.306;9.830;2023-03-20T07:42:57;9.20;99.90
21635;DHT22;10979;48.306;9.830;2023-03-20T07:45:23;9.40;99.90
21635;DHT22;10979;48.306;9.830;2023-03-20T07:47:49;9.70;99.90
21635;DHT22;10979;48.306;9.830;2023-03-20T07:50:15;9.70;99.90
21635;DHT22;10979;48.306;9.830;2023-03-20T07:52:48;10.20;99.90
21635;DHT22;10979;48.306;9.830;2023-03-20T07:55:21;10.50;99.90
21635;DHT22;10979;48.306;9.830;2023-03-20T07:57:47;10.80;99.90
21635;DHT22;10979;48.306;9.830;2023-03-20T08:00:15;11.10;99.90
21635;DHT22;10979;48.306;9.830;2023-03-20T08:02:41;10.90;99.90
21635;DHT22;10979;48.306;9.830;2023-03-20T08:05:07;10.70;99.90
21635;DHT22;10979;48.306;9.830;2023-03-20T08:07:33;10.90;99.90
21635;DHT22;10979;48.306;9.830;2023-03-20T08:09:59;12.60;99.90
21635;DHT22;10979;48.306;9.830;2023-03-20T08:12:25;13.80;99.90
21635;DHT22;10979;48.306;9.830;2023-03-20T08:14:50;13.50;99.90
21635;DHT22;10979;48.306;9.830;2023-03-20T08:17:16;12.80;99.90
21635;DHT22;10979;48.306;9.830;2023-03-20T08:19:42;12.60;99.90
21635;DHT22;10979;48.306;9.830;2023-03-20T08:22:08;12.40;99.90
21635;DHT22;10979;48.306;9.830;2023-03-20T08:24:33;13.00;99.90
21635;DHT22;10979;48.306;9.830;2023-03-20T08:26:59;12.90;99.90
21635;DHT22;10979;48.306;9.830;2023-03-20T08:29:25;12.10;99.90
21635;DHT22;10979;48.306;9.830;2023-03-20T08:31:50;11.70;99.90
21635;DHT22;10979;48.306;9.830;2023-03-20T08:34:16;11.90;99.90
21635;DHT22;10979;48.306;9.830;2023-03-20T08:36:41;12.10;99.90
21635;DHT22;10979;48.306;9.830;2023-03-20T08:39:07;12.30;99.90
21635;DHT22;10979;48.306;9.830;2023-03-20T08:41:35;12.40;99.90
21635;DHT22;10979;48.306;9.830;2023-03-20T08:44:02;12.80;99.90
21635;DHT22;10979;48.306;9.830;2023-03-20T08:46:27;13.60;99.90
21635;DHT22;10979;48.306;9.830;2023-03-20T08:48:53;14.50;99.90
21635;DHT22;10979;48.306;9.830;2023-03-20T08:51:18;14.70;99.90
21635;DHT22;10979;48.306;9.830;2023-03-20T08:53:44;15.40;99.90
21635;DHT22;10979;48.306;9.830;2023-03-20T08:56:10;13.90;99.90
21635;DHT22;10979;48.306;9.830;2023-03-20T08:58:36;14.20;99.90
21635;DHT22;10979;48.306;9.830;2023-03-20T09:01:05;15.90;99.90
21635;DHT22;10979;48.306;9.830;2023-03-20T09:03:32;14.80;99.90
21635;DHT22;10979;48.306;9.830;2023-03-20T09:05:57;13.60;99.90
21635;DHT22;10979;48.306;9.830;2023-03-20T09:08:23;14.30;99.90
21635;DHT22;10979;48.306;9.830;2023-03-20T09:10:49;14.70;99.90
21635;DHT22;10979;48.306;9.830;2023-03-20T09:13:15;14.40;99.90
21635;DHT22;10979;48.306;9.830;2023-03-20T09:15:41;15.00;99.90
21635;DHT22;10979;48.306;9.830;2023-03-20T09:18:07;14.70;99.90
21635;DHT22;10979;48.306;9.830;2023-03-20T09:20:32;13.30;99.90
21635;DHT22;10979;48.306;9.830;2023-03-20T09:22:58;13.90;99.90
21635;DHT22;10979;48.306;9.830;2023-03-20T09:25:23;14.20;99.90
21635;DHT22;10979;48.306;9.830;2023-03-20T09:27:53;13.50;99.90
21635;DHT22;10979;48.306;9.830;2023-03-20T09:30:22;13.00;99.90
21635;DHT22;10979;48.306;9.830;2023-03-20T09:32:48;12.10;99.90
21635;DHT22;10979;48.306;9.830;2023-03-20T09:35:15;12.00;99.90
21635;DHT22;10979;48.306;9.830;2023-03-20T09:37:41;11.80;99.90
21635;DHT22;10979;48.306;9.830;2023-03-20T09:40:07;11.80;99.90
21635;DHT22;10979;48.306;9.830;2023-03-20T09:42:45;12.10;99.90
21635;DHT22;10979;48.306;9.830;2023-03-20T09:54:05;11.60;99.90
21635;DHT22;10979;48.306;9.830;2023-03-20T09:56:32;11.60;99.90
21635;DHT22;10979;48.306;9.830;2023-03-20T09:59:03;11.50;99.90
21635;DHT22;10979;48.306;9.830;2023-03-20T10:01:43;11.40;99.90
21635;DHT22;10979;48.306;9.830;2023-03-20T10:04:10;11.30;99.90
21635;DHT22;10979;48.306;9.830;2023-03-20T10:06:37;11.20;99.90
21635;DHT22;10979;48.306;9.830;2023-03-20T10:09:22;11.20;99.90
21635;DHT22;10979;48.306;9.830;2023-03-20T10:15:09;11.00;99.90
21635;DHT22;10979;48.306;9.830;2023-03-20T10:22:46;10.70;99.90
21635;DHT22;10979;48.306;9.830;2023-03-20T10:28:01;10.90;99.90
21635;DHT22;10979;48.306;9.830;2023-03-20T10:41:36;12.10;99.90
21635;DHT22;10979;48.306;9.830;2023-03-20T10:44:04;12.30;99.90
21635;DHT22;10979;48.306;9.830;2023-03-20T10:46:39;12.10;99.90
21635;DHT22;10979;48.306;9.830;2023-03-20T10:49:15;12.20;99.90
21635;DHT22;10979;48.306;9.830;2023-03-20T10:51:51;12.10;99.90
21635;DHT22;10979;48.306;9.830;2023-03-20T10:54:40;12.40;99.90
21635;DHT22;10979;48.306;9.830;2023-03-20T10:57:17;12.40;99.90
21635;DHT22;10979;48.306;9.830;2023-03-20T10:59:48;12.40;99.90
21635;DHT22;10979;48.306;9.830;2023-03-20T11:02:16;12.40;99.90
21635;DHT22;10979;48.306;9.830;2023-03-20T11:04:42;12.90;99.90
21635;DHT22;10979;48.306;9.830;2023-03-20T11:09:37;12.80;99.90
21635;DHT22;10979;48.306;9.830;2023-03-20T11:12:03;13.00;99.90
21635;DHT22;10979;48.306;9.830;2023-03-20T11:14:35;12.80;99.90
21635;DHT22;10979;48.306;9.830;2023-03-20T11:17:03;13.00;99.90
21635;DHT22;10979;48.306;9.830;2023-03-20T11:19:33;12.70;99.90
21635;DHT22;10979;48.306;9.830;2023-03-20T11:22:24;12.70;99.90
21635;DHT22;10979;48.306;9.830;2023-03-20T11:24:53;12.70;99.90
21635;DHT22;10979;48.306;9.830;2023-03-20T11:27:33;12.60;99.90
21635;DHT22;10979;48.306;9.830;2023-03-20T11:30:04;12.20;99.90
21635;DHT22;10979;48.306;9.830;2023-03-20T11:32:34;12.00;99.90
21635;DHT22;10979;48.306;9.830;2023-03-20T11:35:29;12.20;99.90
21635;DHT22;10979;48.306;9.830;2023-03-20T11:38:18;12.30;99.90
21635;DHT22;10979;48.306;9.830;2023-03-20T11:40:45;12.20;99.90
21635;DHT22;10979;48.306;9.830;2023-03-20T11:43:26;12.40;99.90
21635;DHT22;10979;48.306;9.830;2023-03-20T11:46:00;12.40;99.90
21635;DHT22;10979;48.306;9.830;2023-03-20T11:48:38;11.90;99.90
21635;DHT22;10979;48.306;9.830;2023-03-20T11:51:10;12.20;99.90
21635;DHT22;10979;48.306;9.830;2023-03-20T11:56:19;12.00;99.90
21635;DHT22;10979;48.306;9.830;2023-03-20T11:58:55;12.00;99.90
21635;DHT22;10979;48.306;9.830;2023-03-20T12:01:22;12.30;99.90
21635;DHT22;10979;48.306;9.830;2023-03-20T12:07:26;12.50;99.90
21635;DHT22;10979;48.306;9.830;2023-03-20T12:09:32;12.30;99.90
21635;DHT22;10979;48.306;9.830;2023-03-20T12:17:43;12.70;99.90
21635;DHT22;10979;48.306;9.830;2023-03-20T12:28:35;13.00;99.90
21635;DHT22;10979;48.306;9.830;2023-03-20T12:31:14;13.10;99.90
21635;DHT22;10979;48.306;9.830;2023-03-20T12:34:09;13.30;99.90
21635;DHT22;10979;48.306;9.830;2023-03-20T12:36:41;13.40;99.90
21635;DHT22;10979;48.306;9.830;2023-03-20T12:39:13;13.50;99.90
21635;DHT22;10979;48.306;9.830;2023-03-20T12:42:06;13.30;99.90
21635;DHT22;10979;48.306;9.830;2023-03-20T12:44:49;13.20;99.90
21635;DHT22;10979;48.306;9.830;2023-03-20T12:58:06;13.90;99.90
21635;DHT22;10979;48.306;9.830;2023-03-20T13:01:02;13.80;99.90
21635;DHT22;10979;48.306;9.830;2023-03-20T13:06:27;14.00;99.90
21635;DHT22;10979;48.306;9.830;2023-03-20T13:09:05;13.10;99.90
21635;DHT22;10979;48.306;9.830;2023-03-20T13:20:23;12.80;99.90
21635;DHT22;10979;48.306;9.830;2023-03-20T13:23:07;13.10;99.90
21635;DHT22;10979;48.306;9.830;2023-03-20T13:30:53;13.70;99.90
21635;DHT22;10979;48.306;9.830;2023-03-20T13:33:44;13.70;99.90
21635;DHT22;10979;48.306;9.830;2023-03-20T13:39:05;14.50;99.90
21635;DHT22;10979;48.306;9.830;2023-03-20T13:41:35;14.10;99.90
21635;DHT22;10979;48.306;9.830;2023-03-20T13:44:03;14.40;99.90
21635;DHT22;10979;48.306;9.830;2023-03-20T13:46:42;13.70;99.90
21635;DHT22;10979;48.306;9.830;2023-03-20T13:49:37;13.60;99.90
21635;DHT22;10979;48.306;9.830;2023-03-20T13:52:21;13.50;99.90
21635;DHT22;10979;48.306;9.830;2023-03-20T13:55:00;13.70;99.90
21635;DHT22;10979;48.306;9.830;2023-03-20T13:57:48;13.80;99.90
21635;DHT22;10979;48.306;9.830;2023-03-20T14:03:26;13.70;99.90
21635;DHT22;10979;48.306;9.830;2023-03-20T14:05:53;13.80;99.90
21635;DHT22;10979;48.306;9.830;2023-03-20T14:13:44;13.80;99.90
21635;DHT22;10979;48.306;9.830;2023-03-20T14:16:13;13.70;99.90
21635;DHT22;10979;48.306;9.830;2023-03-20T14:18:41;13.60;99.90
21635;DHT22;10979;48.306;9.830;2023-03-20T14:21:12;13.50;99.90
21635;DHT22;10979;48.306;9.830;2023-03-20T14:23:41;13.40;99.90
21635;DHT22;10979;48.306;9.830;2023-03-20T14:26:25;13.30;99.90
21635;DHT22;10979;48.306;9.830;2023-03-20T14:28:57;13.70;99.90
21635;DHT22;10979;48.306;9.830;2023-03-20T14:31:25;13.50;99.90
21635;DHT22;10979;48.306;9.830;2023-03-20T14:36:28;13.80;99.90
21635;DHT22;10979;48.306;9.830;2023-03-20T14:42:05;14.00;99.90
21635;DHT22;10979;48.306;9.830;2023-03-20T14:57:56;13.10;99.90
21635;DHT22;10979;48.306;9.830;2023-03-20T15:00:24;13.00;99.90
21635;DHT22;10979;48.306;9.830;2023-03-20T15:03:03;12.90;99.90
21635;DHT22;10979;48.306;9.830;2023-03-20T15:05:32;12.60;99.90
21635;DHT22;10979;48.306;9.830;2023-03-20T15:08:09;12.60;99.90
21635;DHT22;10979;48.306;9.830;2023-03-20T15:10:42;12.50;99.90
21635;DHT22;10979;48.306;9.830;2023-03-20T15:13:09;12.40;99.90
21635;DHT22;10979;48.306;9.830;2023-03-20T15:15:35;12.40;99.90
21635;DHT22;10979;48.306;9.830;2023-03-20T15:18:11;12.40;99.90
21635;DHT22;10979;48.306;9.830;2023-03-20T15:20:38;12.40;99.90
21635;DHT22;10979;48.306;9.830;2023-03-20T15:23:04;12.40;99.90
21635;DHT22;10979;48.306;9.830;2023-03-20T15:25:47;12.30;99.90
21635;DHT22;10979;48.306;9.830;2023-03-20T15:28:16;12.20;99.90
21635;DHT22;10979;48.306;9.830;2023-03-20T15:30:44;12.20;99.90
21635;DHT22;10979;48.306;9.830;2023-03-20T15:33:17;12.10;99.90
21635;DHT22;10979;48.306;9.830;2023-03-20T15:35:44;12.20;99.90
21635;DHT22;10979;48.306;9.830;2023-03-20T15:38:12;12.00;99.90
21635;DHT22;10979;48.306;9.830;2023-03-20T15:40:39;11.90;99.90
21635;DHT22;10979;48.306;9.830;2023-03-20T15:43:22;11.90;99.90
21635;DHT22;10979;48.306;9.830;2023-03-20T15:45:49;11.90;99.90
21635;DHT22;10979;48.306;9.830;2023-03-20T15:48:22;11.80;99.90
21635;DHT22;10979;48.306;9.830;2023-03-20T15:50:54;11.70;99.90
21635;DHT22;10979;48.306;9.830;2023-03-20T15:53:33;11.80;99.90
21635;DHT22;10979;48.306;9.830;2023-03-20T15:56:21;11.80;99.90
21635;DHT22;10979;48.306;9.830;2023-03-20T15:58:49;11.90;99.90
21635;DHT22;10979;48.306;9.830;2023-03-20T16:01:22;11.80;99.90
21635;DHT22;10979;48.306;9.830;2023-03-20T16:03:48;11.70;99.90
21635;DHT22;10979;48.306;9.830;2023-03-20T16:06:18;11.60;99.90
21635;DHT22;10979;48.306;9.830;2023-03-20T16:08:44;11.60;99.90
21635;DHT22;10979;48.306;9.830;2023-03-20T16:11:15;11.50;99.90
21635;DHT22;10979;48.306;9.830;2023-03-20T16:13:43;11.40;99.90
21635;DHT22;10979;48.306;9.830;2023-03-20T16:16:13;11.30;99.90
21635;DHT22;10979;48.306;9.830;2023-03-20T16:18:40;11.20;99.90
21635;DHT22;10979;48.306;9.830;2023-03-20T16:21:11;11.00;99.90
21635;DHT22;10979;48.306;9.830;2023-03-20T16:23:43;11.00;99.90
21635;DHT22;10979;48.306;9.830;2023-03-20T16:26:16;10.90;99.90
21635;DHT22;10979;48.306;9.830;2023-03-20T16:28:49;10.80;99.90
21635;DHT22;10979;48.306;9.830;2023-03-20T16:31:19;10.80;99.90
21635;DHT22;10979;48.306;9.830;2023-03-20T16:33:45;10.80;99.90
21635;DHT22;10979;48.306;9.830;2023-03-20T16:36:16;10.80;99.90
21635;DHT22;10979;48.306;9.830;2023-03-20T16:43:58;10.50;99.90
21635;DHT22;10979;48.306;9.830;2023-03-20T16:46:26;10.60;99.90
21635;DHT22;10979;48.306;9.830;2023-03-20T16:48:56;10.70;99.90
21635;DHT22;10979;48.306;9.830;2023-03-20T16:51:27;10.60;99.90
21635;DHT22;10979;48.306;9.830;2023-03-20T16:53:57;10.70;99.90
21635;DHT22;10979;48.306;9.830;2023-03-20T16:56:33;10.60;99.90
21635;DHT22;10979;48.306;9.830;2023-03-20T16:59:09;10.60;99.90
21635;DHT22;10979;48.306;9.830;2023-03-20T17:01:36;10.50;99.90
21635;DHT22;10979;48.306;9.830;2023-03-20T17:04:18;10.50;99.90
21635;DHT22;10979;48.306;9.830;2023-03-20T17:07:14;10.40;99.90
21635;DHT22;10979;48.306;9.830;2023-03-20T17:10:00;10.30;99.90
21635;DHT22;10979;48.306;9.830;2023-03-20T17:12:34;10.30;99.90
21635;DHT22;10979;48.306;9.830;2023-03-20T17:15:02;10.20;99.90
21635;DHT22;10979;48.306;9.830;2023-03-20T17:17:28;10.10;99.90
21635;DHT22;10979;48.306;9.830;2023-03-20T17:19:53;10.00;99.90
21635;DHT22;10979;48.306;9.830;2023-03-20T17:22:24;9.90;99.90
21635;DHT22;10979;48.306;9.830;2023-03-20T17:24:50;9.70;99.90
21635;DHT22;10979;48.306;9.830;2023-03-20T17:27:17;9.60;99.90
21635;DHT22;10979;48.306;9.830;2023-03-20T17:29:45;9.60;99.90
21635;DHT22;10979;48.306;9.830;2023-03-20T17:32:13;9.40;99.90
21635;DHT22;10979;48.306;9.830;2023-03-20T17:34:38;9.20;99.90
21635;DHT22;10979;48.306;9.830;2023-03-20T17:37:05;9.20;99.90
21635;DHT22;10979;48.306;9.830;2023-03-20T17:39:35;9.10;99.90
21635;DHT22;10979;48.306;9.830;2023-03-20T17:42:01;9.00;99.90
21635;DHT22;10979;48.306;9.830;2023-03-20T17:44:26;8.90;99.90
21635;DHT22;10979;48.306;9.830;2023-03-20T17:46:52;8.90;99.90
21635;DHT22;10979;48.306;9.830;2023-03-20T17:49:18;8.90;99.90
21635;DHT22;10979;48.306;9.830;2023-03-20T17:51:47;8.80;99.90
21635;DHT22;10979;48.306;9.830;2023-03-20T17:54:13;8.70;99.90
21635;DHT22;10979;48.306;9.830;2023-03-20T17:56:39;8.60;99.90
21635;DHT22;10979;48.306;9.830;2023-03-20T17:59:11;8.60;99.90
21635;DHT22;10979;48.306;9.830;2023-03-20T18:01:37;8.60;99.90
21635;DHT22;10979;48.306;9.830;2023-03-20T18:04:03;8.60;99.90
21635;DHT22;10979;48.306;9.830;2023-03-20T18:06:31;8.50;99.90
21635;DHT22;10979;48.306;9.830;2023-03-20T18:08:58;8.40;99.90
21635;DHT22;10979;48.306;9.830;2023-03-20T18:11:24;8.40;99.90
21635;DHT22;10979;48.306;9.830;2023-03-20T18:13:50;8.40;99.90
21635;DHT22;10979;48.306;9.830;2023-03-20T18:16:21;8.40;99.90
21635;DHT22;10979;48.306;9.830;2023-03-20T18:18:47;8.30;99.90
21635;DHT22;10979;48.306;9.830;2023-03-20T18:21:15;8.30;99.90
21635;DHT22;10979;48.306;9.830;2023-03-20T18:23:42;8.30;99.90
21635;DHT22;10979;48.306;9.830;2023-03-20T18:26:17;8.20;99.90